Racine, Wisconsin
Current Conditions -  °F | °C
As of 5:53 PM on Wednesday 22 Oct 2014 (Local Time) from KRAC Reporting Station
Clear Clear  
Wind Chill: 43°   Ceiling: Unl
Heat Index: 46°   Visibility: 10mi
Dew Point: 38°   Wind: 6mph
Humidity: 73%   Direction: 120°ESE
Pressure: 30.3"   Gusts: NA
Location:  42.73°N, 87.79°W
Report Text: KRAC 222253Z AUTO 12005KT 10SM CLR 08/03 A3030 RMK AO2 SLP265 T00780033
Loading
Personal Weather Stations






























Interactive Weather Map New forecast layout! Learn more

10-Day Weather Forecast

Advertisements
Track Severe Weather on mobile